createdAt,value
2023-05-05T00:01:25.068Z,99025.91
2023-05-05T00:03:52.310Z,99025.81
2023-05-05T00:06:19.200Z,99020.06
2023-05-05T00:08:46.451Z,99023.00
2023-05-05T00:11:13.263Z,99022.69
2023-05-05T00:13:40.098Z,99019.31
2023-05-05T00:16:07.110Z,99023.72
2023-05-05T00:18:33.956Z,99026.94
2023-05-05T00:21:00.994Z,99024.47
2023-05-05T00:23:28.097Z,99026.56
2023-05-05T00:25:54.913Z,99023.78
2023-05-05T00:28:22.153Z,99015.00
2023-05-05T00:30:49.093Z,99014.91
2023-05-05T00:33:15.930Z,99010.28
2023-05-05T00:35:42.811Z,99006.72
2023-05-05T00:38:09.524Z,99001.22
2023-05-05T00:40:37.977Z,99001.75
2023-05-05T00:43:05.300Z,98994.41
2023-05-05T00:45:32.165Z,98988.37
2023-05-05T00:48:01.000Z,98996.81
2023-05-05T00:50:30.120Z,98992.44
2023-05-05T00:53:03.973Z,98998.66
2023-05-05T00:55:31.784Z,98993.47
2023-05-05T00:57:59.527Z,98989.50
2023-05-05T01:00:27.213Z,98995.19
2023-05-05T01:02:54.301Z,98988.06
2023-05-05T01:05:23.247Z,98988.56
2023-05-05T01:08:04.454Z,98978.19
2023-05-05T01:10:49.907Z,98982.44
2023-05-05T01:13:30.025Z,98984.59
2023-05-05T01:16:19.750Z,98976.94
2023-05-05T01:18:55.733Z,98974.72
2023-05-05T01:21:46.877Z,98971.44
2023-05-05T01:24:32.159Z,98967.06
2023-05-05T01:27:19.986Z,98977.88
2023-05-05T01:30:14.566Z,98975.06
2023-05-05T01:32:48.075Z,98974.16
2023-05-05T01:35:37.759Z,98973.56
2023-05-05T01:38:21.344Z,98966.50
2023-05-05T01:41:03.505Z,98970.53
2023-05-05T01:43:33.857Z,98969.97
2023-05-05T01:46:02.586Z,98973.44
2023-05-05T01:48:30.855Z,98972.50
2023-05-05T01:50:59.128Z,98974.41
2023-05-05T01:53:27.370Z,98970.53
2023-05-05T01:55:55.991Z,98971.59
2023-05-05T01:58:25.272Z,98960.91
2023-05-05T02:00:54.484Z,98959.25
2023-05-05T02:03:23.309Z,98960.59
2023-05-05T02:05:52.144Z,98954.59
2023-05-05T02:08:21.002Z,98963.47
2023-05-05T02:10:49.237Z,98961.22
2023-05-05T02:13:17.186Z,98957.13
2023-05-05T02:15:44.957Z,98956.22
2023-05-05T02:18:12.595Z,98957.78
2023-05-05T02:20:40.388Z,98949.87
2023-05-05T02:23:08.056Z,98945.75
2023-05-05T02:25:43.549Z,98946.25
2023-05-05T02:28:15.364Z,98941.28
2023-05-05T02:30:43.537Z,98942.84
2023-05-05T02:33:13.329Z,98946.06
2023-05-05T02:35:42.158Z,98944.66
2023-05-05T02:38:17.331Z,98943.84
2023-05-05T02:40:45.740Z,98940.47
2023-05-05T02:43:16.900Z,98942.37
2023-05-05T02:45:44.044Z,98946.16
2023-05-05T02:48:13.079Z,98940.59
2023-05-05T02:50:40.016Z,98938.94
2023-05-05T02:53:07.112Z,98938.62
2023-05-05T02:55:42.338Z,98938.03
2023-05-05T02:58:21.910Z,98940.44
2023-05-05T03:00:54.527Z,98938.44
2023-05-05T03:03:31.028Z,98939.75
2023-05-05T03:06:21.430Z,98938.59
2023-05-05T03:09:03.017Z,98938.81
2023-05-05T03:11:36.128Z,98938.00
2023-05-05T03:14:11.975Z,98941.69
2023-05-05T03:16:42.517Z,98938.38
2023-05-05T03:19:12.116Z,98945.72
2023-05-05T03:21:40.217Z,98938.78
2023-05-05T03:24:14.538Z,98936.06
2023-05-05T03:26:42.117Z,98933.03
2023-05-05T03:29:08.955Z,98935.63
2023-05-05T03:31:35.900Z,98943.75
2023-05-05T03:34:02.808Z,98929.59
2023-05-05T03:36:30.002Z,98934.22
2023-05-05T03:38:56.797Z,98932.22
2023-05-05T03:41:24.342Z,98931.63
2023-05-05T03:43:51.559Z,98921.28
2023-05-05T03:46:18.515Z,98927.78
2023-05-05T03:48:45.397Z,98923.91
2023-05-05T03:51:13.479Z,98921.63
2023-05-05T03:53:40.250Z,98925.41
2023-05-05T03:56:07.264Z,98925.41
2023-05-05T03:58:34.040Z,98926.69
2023-05-05T04:01:00.794Z,98926.34
2023-05-05T04:03:27.722Z,98929.06
2023-05-05T04:05:54.597Z,98927.66
2023-05-05T04:08:21.377Z,98931.44
2023-05-05T04:10:48.178Z,98933.31
2023-05-05T04:13:15.005Z,98934.37
2023-05-05T04:15:46.181Z,98934.37
2023-05-05T04:18:13.300Z,98929.19
2023-05-05T04:20:40.126Z,98935.69
2023-05-05T04:23:07.222Z,98932.38
2023-05-05T04:25:34.002Z,98933.22
2023-05-05T04:28:01.031Z,98926.16
2023-05-05T04:30:27.795Z,98931.31
2023-05-05T04:32:54.552Z,98930.50
2023-05-05T04:35:21.298Z,98934.37
2023-05-05T04:37:48.761Z,98941.94
2023-05-05T04:40:15.614Z,98936.28
2023-05-05T04:42:42.425Z,98929.53
2023-05-05T04:45:09.786Z,98930.12
2023-05-05T04:47:40.634Z,98933.41
2023-05-05T04:50:08.343Z,98938.12
2023-05-05T04:52:35.374Z,98949.13
2023-05-05T04:55:02.501Z,98947.56
2023-05-05T04:57:30.708Z,98950.72
2023-05-05T04:59:59.504Z,98957.91
2023-05-05T05:02:27.084Z,98956.13
2023-05-05T05:04:53.869Z,98962.22
2023-05-05T05:07:20.619Z,98950.41
2023-05-05T05:09:47.364Z,98950.28
2023-05-05T05:12:14.358Z,98961.81
2023-05-05T05:14:41.247Z,98964.37
2023-05-05T05:17:08.091Z,98959.84
2023-05-05T05:19:34.836Z,98961.59
2023-05-05T05:22:01.569Z,98963.59
2023-05-05T05:24:28.387Z,98964.50
2023-05-05T05:26:55.140Z,98969.44
2023-05-05T05:29:22.017Z,98963.00
2023-05-05T05:31:50.172Z,98959.59
2023-05-05T05:34:17.025Z,98958.59
2023-05-05T05:36:43.764Z,98959.50
2023-05-05T05:39:10.502Z,98965.84
2023-05-05T05:41:37.260Z,98963.81
2023-05-05T05:44:04.051Z,98963.87
2023-05-05T05:46:30.829Z,98969.12
2023-05-05T05:48:57.716Z,98965.41
2023-05-05T05:51:24.527Z,98970.47
2023-05-05T05:53:51.902Z,98971.09
2023-05-05T05:56:18.661Z,98968.22
2023-05-05T05:58:45.485Z,98969.47
2023-05-05T06:01:12.334Z,98969.28
2023-05-05T06:03:39.133Z,98959.03
2023-05-05T06:06:06.115Z,98961.34
2023-05-05T06:08:33.037Z,98963.38
2023-05-05T06:11:00.661Z,98964.56
2023-05-05T06:13:27.491Z,98960.59
2023-05-05T06:15:54.239Z,98954.72
2023-05-05T06:18:21.080Z,98958.66
2023-05-05T06:20:50.142Z,98959.84
2023-05-05T06:23:17.121Z,98964.56
2023-05-05T06:25:43.983Z,98961.41
2023-05-05T06:28:11.104Z,98952.75
2023-05-05T06:30:37.883Z,98956.91
2023-05-05T06:33:04.603Z,98955.38
2023-05-05T06:35:32.068Z,98959.28
2023-05-05T06:37:58.926Z,98953.38
2023-05-05T06:40:25.671Z,98956.47
2023-05-05T06:42:52.406Z,98957.63
2023-05-05T06:45:19.249Z,98945.19
2023-05-05T06:47:46.155Z,98950.97
2023-05-05T06:50:13.019Z,98957.56
2023-05-05T06:52:39.770Z,98959.81
2023-05-05T06:55:07.022Z,98963.69
2023-05-05T06:57:33.758Z,98953.09
2023-05-05T07:00:00.585Z,98959.72
2023-05-05T07:02:27.462Z,98959.75
2023-05-05T07:04:55.604Z,98960.91
2023-05-05T07:07:22.716Z,98962.84
2023-05-05T07:09:49.569Z,98959.94
2023-05-05T07:12:16.371Z,98959.97
2023-05-05T07:14:43.320Z,98958.63
2023-05-05T07:17:11.118Z,98962.50
2023-05-05T07:19:37.916Z,98953.22
2023-05-05T07:22:04.709Z,98955.44
2023-05-05T07:24:31.537Z,98953.81
2023-05-05T07:26:59.217Z,98955.47
2023-05-05T07:29:25.999Z,98953.84
2023-05-05T07:31:52.772Z,98959.31
2023-05-05T07:34:19.555Z,98955.78
2023-05-05T07:36:46.682Z,98962.06
2023-05-05T07:39:15.314Z,98961.03
2023-05-05T07:41:42.751Z,98956.91
2023-05-05T07:44:09.510Z,98952.22
2023-05-05T07:46:36.586Z,98954.69
2023-05-05T07:49:03.837Z,98956.59
2023-05-05T07:51:33.273Z,98946.97
2023-05-05T07:54:01.342Z,98949.16
2023-05-05T07:56:28.041Z,98947.47
2023-05-05T07:58:55.392Z,98947.72
2023-05-05T08:01:22.489Z,98943.84
2023-05-05T08:03:49.235Z,98947.06
2023-05-05T08:06:16.769Z,98948.44
2023-05-05T08:08:43.553Z,98944.84
2023-05-05T08:11:10.359Z,98953.03
2023-05-05T08:13:37.232Z,98946.94
2023-05-05T08:16:04.245Z,98947.97
2023-05-05T08:18:31.076Z,98947.41
2023-05-05T08:20:58.001Z,98945.97
2023-05-05T08:23:24.854Z,98951.06
2023-05-05T08:25:52.387Z,98943.06
2023-05-05T08:28:19.237Z,98947.34
2023-05-05T08:30:46.306Z,98948.09
2023-05-05T08:33:13.111Z,98945.84
2023-05-05T08:35:39.934Z,98945.78
2023-05-05T08:38:06.720Z,98948.72
2023-05-05T08:40:37.548Z,98943.41
2023-05-05T08:43:04.681Z,98949.13
2023-05-05T08:45:32.161Z,98951.75
2023-05-05T08:48:04.203Z,98953.84
2023-05-05T08:50:32.006Z,98952.94
2023-05-05T08:53:15.847Z,98947.06
2023-05-05T08:55:51.175Z,98951.31
2023-05-05T08:58:19.333Z,98953.12
2023-05-05T09:00:46.587Z,98952.50
2023-05-05T09:03:13.651Z,98950.75
2023-05-05T09:05:42.512Z,98950.59
2023-05-05T09:08:11.542Z,98951.28
2023-05-05T09:10:41.686Z,98951.66
2023-05-05T09:13:08.784Z,98945.19
2023-05-05T09:15:35.937Z,98944.53
2023-05-05T09:18:03.716Z,98943.84
2023-05-05T09:20:38.448Z,98939.59
2023-05-05T09:23:14.324Z,98944.63
2023-05-05T09:25:43.295Z,98943.66
2023-05-05T09:28:12.293Z,98952.06
2023-05-05T09:30:40.865Z,98940.66
2023-05-05T09:33:08.075Z,98943.53
2023-05-05T09:35:55.233Z,98943.66
2023-05-05T09:38:23.834Z,98934.91
2023-05-05T09:40:52.510Z,98936.34
2023-05-05T09:43:21.601Z,98932.88
2023-05-05T09:45:49.309Z,98938.47
2023-05-05T09:48:25.793Z,98928.69
2023-05-05T09:50:53.147Z,98938.41
2023-05-05T09:53:20.730Z,98923.63
2023-05-05T09:55:57.701Z,98936.34
2023-05-05T09:58:29.266Z,98930.91
2023-05-05T10:00:57.767Z,98927.13
2023-05-05T10:03:25.432Z,98929.34
2023-05-05T10:05:54.290Z,98931.38
2023-05-05T10:08:23.721Z,98924.59
2023-05-05T10:11:01.023Z,98926.59
2023-05-05T10:13:28.872Z,98928.69
2023-05-05T10:15:57.357Z,98931.81
2023-05-05T10:18:26.994Z,98924.22
2023-05-05T10:21:04.357Z,98927.34
2023-05-05T10:23:44.848Z,98927.41
2023-05-05T10:26:14.417Z,98923.56
2023-05-05T10:28:44.120Z,98926.06
2023-05-05T10:31:25.744Z,98914.75
2023-05-05T10:34:09.869Z,98914.78
2023-05-05T10:36:39.363Z,98920.88
2023-05-05T10:39:10.792Z,98915.38
2023-05-05T10:41:38.128Z,98908.56
2023-05-05T10:44:05.976Z,98910.09
2023-05-05T10:46:33.045Z,98900.66
2023-05-05T10:49:08.699Z,98902.97
2023-05-05T10:51:54.977Z,98904.63
2023-05-05T10:54:24.769Z,98902.19
2023-05-05T10:56:52.371Z,98896.66
2023-05-05T10:59:37.620Z,98897.03
2023-05-05T11:02:24.776Z,98901.78
2023-05-05T11:05:18.507Z,98900.16
2023-05-05T11:07:46.557Z,98895.44
2023-05-05T11:10:15.273Z,98890.72
2023-05-05T11:12:54.667Z,98884.66
2023-05-05T11:15:24.390Z,98897.72
2023-05-05T11:17:51.440Z,98890.53
2023-05-05T11:20:39.957Z,98890.03
2023-05-05T11:23:06.929Z,98885.63
2023-05-05T11:25:36.941Z,98882.34
2023-05-05T11:28:06.424Z,98886.75
2023-05-05T11:30:33.233Z,98877.16
2023-05-05T11:33:31.280Z,98877.94
2023-05-05T11:35:58.737Z,98871.03
2023-05-05T11:38:59.706Z,98869.06
2023-05-05T11:41:27.096Z,98876.19
2023-05-05T11:44:12.992Z,98874.84
2023-05-05T11:46:41.162Z,98874.16
2023-05-05T11:49:09.303Z,98865.34
2023-05-05T11:51:36.630Z,98860.88
2023-05-05T11:54:03.531Z,98863.97
2023-05-05T11:56:30.392Z,98862.28
2023-05-05T11:59:09.722Z,98865.00
2023-05-05T12:01:41.288Z,98850.59
2023-05-05T12:04:17.802Z,98851.22
2023-05-05T12:06:49.091Z,98853.91
2023-05-05T12:09:16.858Z,98854.31
2023-05-05T12:11:58.136Z,98850.19
2023-05-05T12:14:25.816Z,98856.03
2023-05-05T12:16:56.345Z,98844.41
2023-05-05T12:19:24.122Z,98851.81
2023-05-05T12:21:51.387Z,98849.78
2023-05-05T12:24:18.273Z,98852.81
2023-05-05T12:26:45.004Z,98846.22
2023-05-05T12:29:12.007Z,98844.72
2023-05-05T12:31:42.592Z,98838.59
2023-05-05T12:34:10.702Z,98837.25
2023-05-05T12:36:38.161Z,98838.66
2023-05-05T12:39:05.612Z,98842.03
2023-05-05T12:41:32.946Z,98836.72
2023-05-05T12:44:01.238Z,98835.72
2023-05-05T12:46:32.215Z,98835.13
2023-05-05T12:49:06.927Z,98832.94
2023-05-05T12:51:35.192Z,98827.47
2023-05-05T12:54:09.969Z,98829.22
2023-05-05T12:56:42.086Z,98821.00
2023-05-05T12:59:28.625Z,98823.22
2023-05-05T13:02:00.090Z,98825.75
2023-05-05T13:04:28.108Z,98823.44
2023-05-05T13:07:11.754Z,98817.97
2023-05-05T13:09:38.971Z,98806.59
2023-05-05T13:12:08.274Z,98807.22
2023-05-05T13:14:36.384Z,98802.59
2023-05-05T13:17:03.855Z,98803.16
2023-05-05T13:19:31.012Z,98796.31
2023-05-05T13:21:59.123Z,98792.91
2023-05-05T13:24:42.412Z,98793.84
2023-05-05T13:27:13.108Z,98786.84
2023-05-05T13:29:41.662Z,98789.75
2023-05-05T13:32:08.505Z,98779.53
2023-05-05T13:34:35.456Z,98777.66
2023-05-05T13:37:02.199Z,98780.56
2023-05-05T13:39:28.962Z,98768.69
2023-05-05T13:41:55.775Z,98766.81
2023-05-05T13:44:22.541Z,98767.72
2023-05-05T13:46:49.356Z,98767.81
2023-05-05T13:49:16.923Z,98758.44
2023-05-05T13:51:43.805Z,98756.94
2023-05-05T13:54:10.568Z,98757.38
2023-05-05T13:56:37.481Z,98749.13
2023-05-05T13:59:04.197Z,98755.12
2023-05-05T14:01:31.202Z,98749.66
2023-05-05T14:03:58.205Z,98743.72
2023-05-05T14:06:26.494Z,98750.56
2023-05-05T14:08:53.667Z,98749.06
2023-05-05T14:11:20.811Z,98749.97
2023-05-05T14:13:48.186Z,98739.62
2023-05-05T14:16:15.100Z,98750.50
2023-05-05T14:18:41.953Z,98739.34
2023-05-05T14:21:08.879Z,98743.41
2023-05-05T14:23:35.672Z,98733.50
2023-05-05T14:26:02.752Z,98736.37
2023-05-05T14:28:29.614Z,98732.06
2023-05-05T14:30:56.546Z,98733.81
2023-05-05T14:33:23.383Z,98738.66
2023-05-05T14:35:50.256Z,98732.72
2023-05-05T14:38:17.195Z,98727.22
2023-05-05T14:40:44.052Z,98727.22
2023-05-05T14:43:10.941Z,98725.69
2023-05-05T14:45:37.886Z,98726.13
2023-05-05T14:48:04.751Z,98724.97
2023-05-05T14:50:31.573Z,98726.94
2023-05-05T14:52:58.325Z,98723.81
2023-05-05T14:55:25.144Z,98726.25
2023-05-05T14:57:52.138Z,98718.34
2023-05-05T15:00:19.120Z,98722.75
2023-05-05T15:02:48.180Z,98720.75
2023-05-05T15:05:15.369Z,98713.22
2023-05-05T15:07:42.198Z,98720.06
2023-05-05T15:10:09.434Z,98711.69
2023-05-05T15:12:36.459Z,98713.69
2023-05-05T15:15:03.414Z,98710.88
2023-05-05T15:17:31.864Z,98719.25
2023-05-05T15:19:58.773Z,98717.28
2023-05-05T15:22:26.098Z,98716.47
2023-05-05T15:24:53.237Z,98714.84
2023-05-05T15:27:20.088Z,98717.97
2023-05-05T15:29:47.045Z,98712.75
2023-05-05T15:32:14.134Z,98713.94
2023-05-05T15:34:40.982Z,98715.09
2023-05-05T15:37:07.733Z,98712.69
2023-05-05T15:39:34.529Z,98714.63
2023-05-05T15:42:04.963Z,98715.00
2023-05-05T15:44:31.954Z,98711.38
2023-05-05T15:46:58.760Z,98717.78
2023-05-05T15:49:25.587Z,98710.94
2023-05-05T15:51:52.384Z,98711.31
2023-05-05T15:54:19.243Z,98712.84
2023-05-05T15:56:45.978Z,98714.81
2023-05-05T15:59:12.847Z,98703.59
2023-05-05T16:01:39.766Z,98712.31
2023-05-05T16:04:06.554Z,98714.97
2023-05-05T16:06:33.410Z,98708.59
2023-05-05T16:09:00.275Z,98708.16
2023-05-05T16:11:27.269Z,98704.56
2023-05-05T16:13:54.079Z,98697.72
2023-05-05T16:16:21.816Z,98705.63
2023-05-05T16:18:48.585Z,98696.81
2023-05-05T16:21:15.493Z,98695.94
2023-05-05T16:23:42.259Z,98696.28
2023-05-05T16:26:09.098Z,98693.88
2023-05-05T16:28:36.018Z,98695.41
2023-05-05T16:31:02.759Z,98686.94
2023-05-05T16:33:29.732Z,98688.09
2023-05-05T16:35:56.906Z,98688.81
2023-05-05T16:38:23.784Z,98685.94
2023-05-05T16:40:50.621Z,98687.00
2023-05-05T16:43:17.445Z,98687.72
2023-05-05T16:45:44.297Z,98682.87
2023-05-05T16:48:11.434Z,98682.31
2023-05-05T16:50:38.142Z,98682.19
2023-05-05T16:53:04.948Z,98680.47
2023-05-05T16:55:31.754Z,98685.97
2023-05-05T16:57:58.464Z,98688.66
2023-05-05T17:00:25.343Z,98684.50
2023-05-05T17:02:52.173Z,98679.97
2023-05-05T17:05:19.072Z,98683.03
2023-05-05T17:07:45.995Z,98677.72
2023-05-05T17:10:12.709Z,98681.13
2023-05-05T17:12:39.546Z,98679.72
2023-05-05T17:15:08.094Z,98678.38
2023-05-05T17:17:35.322Z,98674.22
2023-05-05T17:20:05.269Z,98679.22
2023-05-05T17:22:32.146Z,98681.41
2023-05-05T17:24:59.025Z,98687.56
2023-05-05T17:27:25.830Z,98683.44
2023-05-05T17:29:52.766Z,98685.66
2023-05-05T17:32:19.482Z,98679.03
2023-05-05T17:34:46.213Z,98679.28
2023-05-05T17:37:12.989Z,98685.78
2023-05-05T17:39:39.832Z,98683.94
2023-05-05T17:42:06.629Z,98690.53
2023-05-05T17:44:33.431Z,98682.78
2023-05-05T17:47:00.490Z,98690.87
2023-05-05T17:49:27.240Z,98685.06
2023-05-05T17:51:53.988Z,98690.41
2023-05-05T17:54:21.119Z,98691.34
2023-05-05T17:56:47.841Z,98701.38
2023-05-05T17:59:14.568Z,98698.72
2023-05-05T18:01:41.473Z,98706.53
2023-05-05T18:04:08.472Z,98698.63
2023-05-05T18:06:35.181Z,98695.63
2023-05-05T18:09:02.115Z,98705.97
2023-05-05T18:11:30.711Z,98703.28
2023-05-05T18:16:47.729Z,98706.22
2023-05-05T18:19:14.512Z,98705.84
2023-05-05T18:21:41.340Z,98702.78
2023-05-05T18:24:19.303Z,98705.28
2023-05-05T18:26:50.073Z,98708.91
2023-05-05T18:29:21.965Z,98709.31
2023-05-05T18:31:52.983Z,98706.25
2023-05-05T18:34:20.737Z,98709.09
2023-05-05T18:36:48.311Z,98707.50
2023-05-05T18:39:15.302Z,98715.56
2023-05-05T18:41:42.146Z,98711.69
2023-05-05T18:44:08.987Z,98715.63
2023-05-05T18:46:35.746Z,98719.25
2023-05-05T18:49:03.105Z,98726.31
2023-05-05T18:51:29.971Z,98724.69
2023-05-05T18:53:56.790Z,98728.31
2023-05-05T18:56:23.545Z,98728.66
2023-05-05T18:58:50.326Z,98729.19
2023-05-05T19:01:17.278Z,98726.13
2023-05-05T19:03:48.236Z,98730.84
2023-05-05T19:06:15.538Z,98733.63
2023-05-05T19:08:43.104Z,98742.06
2023-05-05T19:11:09.926Z,98740.44
2023-05-05T19:16:08.608Z,98745.66
2023-05-05T19:18:35.416Z,98745.00
2023-05-05T19:21:02.379Z,98745.50
2023-05-05T19:23:29.165Z,98744.03
2023-05-05T19:25:55.916Z,98743.72
2023-05-05T19:28:22.863Z,98748.88
2023-05-05T19:30:49.721Z,98741.41
2023-05-05T19:33:16.578Z,98737.50
2023-05-05T19:35:44.168Z,98741.50
2023-05-05T19:38:11.073Z,98740.03
2023-05-05T19:40:38.985Z,98742.94
2023-05-05T19:43:06.014Z,98739.84
2023-05-05T19:45:33.846Z,98747.78
2023-05-05T19:48:01.794Z,98740.12
2023-05-05T19:50:30.457Z,98739.78
2023-05-05T19:52:57.991Z,98740.25
2023-05-05T19:55:24.900Z,98740.69
2023-05-05T19:57:51.942Z,98736.13
2023-05-05T20:00:19.783Z,98730.75
2023-05-05T20:02:48.667Z,98732.84
2023-05-05T20:05:17.354Z,98732.47
2023-05-05T20:07:46.464Z,98730.97
2023-05-05T20:10:13.652Z,98720.69
2023-05-05T20:12:47.790Z,98730.75
2023-05-05T20:15:19.348Z,98724.03
2023-05-05T20:17:47.648Z,98719.78
2023-05-05T20:20:20.645Z,98726.88
2023-05-05T20:22:48.399Z,98720.66
2023-05-05T20:25:16.370Z,98717.72
2023-05-05T20:27:43.369Z,98720.94
2023-05-05T20:30:10.943Z,98717.50
2023-05-05T20:32:38.188Z,98726.22
2023-05-05T20:35:06.191Z,98713.66
2023-05-05T20:37:33.235Z,98711.03
2023-05-05T20:40:00.193Z,98713.91
2023-05-05T20:42:27.925Z,98710.12
2023-05-05T20:44:54.893Z,98707.78
2023-05-05T20:47:21.687Z,98712.28
2023-05-05T20:49:48.448Z,98705.28
2023-05-05T20:52:15.228Z,98710.28
2023-05-05T20:54:42.064Z,98706.22
2023-05-05T20:57:08.860Z,98709.91
2023-05-05T20:59:35.663Z,98703.69
2023-05-05T21:02:02.439Z,98704.00
2023-05-05T21:04:29.337Z,98703.00
2023-05-05T21:06:57.439Z,98704.75
2023-05-05T21:09:24.257Z,98706.78
2023-05-05T21:11:51.065Z,98698.94
2023-05-05T21:14:17.904Z,98697.63
2023-05-05T21:16:44.711Z,98700.69
2023-05-05T21:19:11.625Z,98698.53
2023-05-05T21:21:38.377Z,98696.22
2023-05-05T21:24:07.654Z,98703.78
2023-05-05T21:26:34.716Z,98706.03
2023-05-05T21:29:01.582Z,98700.59
2023-05-05T21:31:28.489Z,98705.59
2023-05-05T21:33:55.321Z,98702.12
2023-05-05T21:36:22.148Z,98698.66
2023-05-05T21:38:49.571Z,98697.03
2023-05-05T21:41:16.879Z,98693.84
2023-05-05T21:43:43.739Z,98698.34
2023-05-05T21:46:10.662Z,98694.47
2023-05-05T21:48:39.070Z,98690.50
2023-05-05T21:51:06.821Z,98688.34
2023-05-05T21:53:33.938Z,98686.53
2023-05-05T21:56:01.416Z,98683.53
2023-05-05T21:58:29.137Z,98688.34
2023-05-05T22:00:55.928Z,98688.44
2023-05-05T22:03:22.821Z,98697.00
2023-05-05T22:05:49.777Z,98691.09
2023-05-05T22:08:16.571Z,98696.88
2023-05-05T22:10:43.312Z,98703.56
2023-05-05T22:13:10.701Z,98697.56
2023-05-05T22:15:45.848Z,98705.59
2023-05-05T22:18:14.064Z,98693.59
2023-05-05T22:20:40.974Z,98691.75
2023-05-05T22:23:07.688Z,98687.38
2023-05-05T22:25:35.325Z,98696.50
2023-05-05T22:28:02.361Z,98696.28
2023-05-05T22:30:29.645Z,98697.41
2023-05-05T22:32:56.435Z,98703.78
2023-05-05T22:35:23.245Z,98700.81
2023-05-05T22:37:50.021Z,98696.13
2023-05-05T22:40:16.816Z,98692.16
2023-05-05T22:42:43.612Z,98695.72
2023-05-05T22:45:10.805Z,98687.25
2023-05-05T22:47:37.864Z,98691.69
2023-05-05T22:50:05.325Z,98689.84
2023-05-05T22:52:32.050Z,98690.16
2023-05-05T22:54:58.828Z,98693.81
2023-05-05T22:57:25.726Z,98684.84
2023-05-05T22:59:52.671Z,98686.56
2023-05-05T23:02:19.442Z,98676.94
2023-05-05T23:04:46.377Z,98681.72
2023-05-05T23:07:13.631Z,98682.00
2023-05-05T23:09:41.179Z,98688.09
2023-05-05T23:12:08.002Z,98679.94
2023-05-05T23:14:35.616Z,98672.00
2023-05-05T23:17:02.469Z,98676.47
2023-05-05T23:19:32.163Z,98664.12
2023-05-05T23:21:59.777Z,98669.09
2023-05-05T23:24:27.768Z,98664.50
2023-05-05T23:26:56.205Z,98662.34
2023-05-05T23:29:23.055Z,98653.59
2023-05-05T23:31:49.808Z,98654.19
2023-05-05T23:34:16.698Z,98649.59
2023-05-05T23:36:43.498Z,98648.53
2023-05-05T23:39:10.346Z,98649.12
2023-05-05T23:41:37.172Z,98645.88
2023-05-05T23:44:03.994Z,98639.59
2023-05-05T23:46:31.015Z,98637.97
2023-05-05T23:48:57.817Z,98632.28
2023-05-05T23:51:24.613Z,98639.47
2023-05-05T23:53:51.741Z,98639.75
2023-05-05T23:56:18.478Z,98633.72
2023-05-05T23:58:45.278Z,98627.72
